Terminal Aerodrome Forecast
Issued by NWS Wichita, KS

Home | Current Version | Previous Version | Text Only | Print | Product List | Glossary Off
Versions: 1 2 3 4 5 6 7 8 9 10 11 12 13 14 15 16 17 18 19

859
FTUS43 KICT 011416 AAB
TAFICT
TAF AMD
KICT 011416Z 0114/0212 31012G21KT P6SM OVC020
     FM011600 31013G21KT P6SM BKN025 OVC050
     FM011800 34012G20KT P6SM SCT030 OVC050
     FM012300 36011KT P6SM OVC050
     FM020700 36007KT P6SM SCT020 OVC035
     FM021000 34008KT P6SM VCSH SCT010 OVC025=

USA.gov is the U.S. government's official web portal to all federal, state and local government web resources and services.